Time;durP1;ratioP1;P1;durP2;ratioP2;P2;SDS_P1;SDS_P2;PMS_P1;PMS_P2;Temp;Humidity;BMP_temperature;BMP_pressure;BME280_temperature;BME280_humidity;BME280_pressure;Samples;Min_cycle;Max_cycle;Signal;HPM_P1;HPM_P2
2022/11/09 00:00:34;;;;;;;;;;;23.20;90.40;;;;;;5040236;28;19909;-71
2022/11/09 00:03:01;;;;;;;;;;;23.40;90.20;;;;;;5042366;28;20273;-68
2022/11/09 00:05:28;;;;;;;;;;;23.40;89.60;;;;;;5040928;28;19931;-68
2022/11/09 00:07:54;;;;;;;;;;;23.20;90.00;;;;;;5040749;28;19913;-68
2022/11/09 00:10:21;;;;;;;;;;;23.40;90.10;;;;;;5041229;28;19920;-70
2022/11/09 00:12:47;;;;;;;;;;;23.60;89.60;;;;;;5040196;28;19921;-68
2022/11/09 00:15:14;;;;;;;;;;;23.90;87.70;;;;;;5041689;28;19909;-67
2022/11/09 00:17:41;;;;;;;;;;;24.00;87.70;;;;;;5038999;28;19920;-71
2022/11/09 00:20:08;;;;;;;;;;;24.20;86.50;;;;;;5041835;28;20313;-70
2022/11/09 00:22:35;;;;;;;;;;;24.30;85.00;;;;;;5040394;28;19909;-68
2022/11/09 00:25:01;;;;;;;;;;;24.10;86.40;;;;;;5041068;28;19936;-68
2022/11/09 00:27:28;;;;;;;;;;;23.90;86.40;;;;;;5040301;28;19916;-69
2022/11/09 00:29:55;;;;;;;;;;;24.10;86.40;;;;;;5040600;28;20062;-68
2022/11/09 00:32:21;;;;;;;;;;;24.50;86.40;;;;;;5041549;28;20451;-68
2022/11/09 00:34:48;;;;;;;;;;;24.40;83.80;;;;;;5022195;28;19909;-68
2022/11/09 00:37:14;;;;;;;;;;;24.20;85.00;;;;;;5041267;28;19924;-68
2022/11/09 00:39:41;;;;;;;;;;;24.30;83.40;;;;;;5039595;28;20522;-68
2022/11/09 00:42:08;;;;;;;;;;;24.50;80.50;;;;;;5041269;28;19916;-68
2022/11/09 00:44:34;;;;;;;;;;;24.50;82.30;;;;;;5040282;28;19905;-71
2022/11/09 00:47:01;;;;;;;;;;;24.70;85.30;;;;;;5039971;28;19920;-67
2022/11/09 00:49:27;;;;;;;;;;;24.90;85.40;;;;;;5022548;28;20090;-67
2022/11/09 00:51:54;;;;;;;;;;;25.10;84.90;;;;;;5040217;28;19936;-67
2022/11/09 00:54:21;;;;;;;;;;;25.20;83.70;;;;;;5041235;28;19920;-67
2022/11/09 00:56:47;;;;;;;;;;;25.50;83.30;;;;;;5038413;28;19920;-68
2022/11/09 00:59:14;;;;;;;;;;;25.50;81.50;;;;;;5041195;28;19909;-70
2022/11/09 01:01:40;;;;;;;;;;;25.50;79.90;;;;;;5039982;28;19913;-68
2022/11/09 01:04:07;;;;;;;;;;;25.30;80.20;;;;;;5040748;28;19909;-68
2022/11/09 01:06:34;;;;;;;;;;;25.20;79.90;;;;;;5039798;28;19912;-71
2022/11/09 01:09:01;;;;;;;;;;;25.10;78.20;;;;;;5040184;28;20066;-69
2022/11/09 01:11:28;;;;;;;;;;;25.20;78.70;;;;;;5044874;28;19909;-69
2022/11/09 01:13:54;;;;;;;;;;;25.50;80.10;;;;;;5043642;28;20035;-68
2022/11/09 01:16:22;;;;;;;;;;;25.20;76.30;;;;;;5044875;28;19916;-70
2022/11/09 01:18:52;;;;;;;;;;;25.10;79.60;;;;;;5043156;28;19913;-70
2022/11/09 01:21:18;;;;;;;;;;;25.20;77.00;;;;;;5044965;28;19909;-69
2022/11/09 01:23:45;;;;;;;;;;;25.60;77.70;;;;;;5043828;28;19908;-67
2022/11/09 01:26:12;;;;;;;;;;;25.90;78.10;;;;;;5043943;28;20611;-68
2022/11/09 01:28:39;;;;;;;;;;;25.80;79.70;;;;;;5043509;28;19909;-68
2022/11/09 01:31:07;;;;;;;;;;;25.70;78.90;;;;;;5025919;28;20370;-71
2022/11/09 01:33:35;;;;;;;;;;;25.70;80.10;;;;;;5043992;28;19909;-71
2022/11/09 01:36:05;;;;;;;;;;;25.90;82.00;;;;;;5043257;28;19913;-69
2022/11/09 01:38:32;;;;;;;;;;;25.80;80.20;;;;;;5044342;28;19959;-71
2022/11/09 01:40:59;;;;;;;;;;;25.70;79.90;;;;;;5042840;28;20258;-69
2022/11/09 01:43:25;;;;;;;;;;;25.80;80.30;;;;;;5044057;28;20249;-68
2022/11/09 01:45:58;;;;;;;;;;;25.80;81.00;;;;;;5042810;28;19909;-70
2022/11/09 01:48:38;;;;;;;;;;;25.70;78.30;;;;;;5044579;28;19909;-71
2022/11/09 01:51:17;;;;;;;;;;;25.50;79.90;;;;;;5043440;28;19909;-70
2022/11/09 01:53:46;;;;;;;;;;;25.70;80.10;;;;;;5043208;28;20086;-69
2022/11/09 01:56:14;;;;;;;;;;;25.50;78.80;;;;;;5042873;28;19909;-69
2022/11/09 01:58:46;;;;;;;;;;;25.50;77.10;;;;;;5043058;28;20286;-69
2022/11/09 02:01:13;;;;;;;;;;;25.50;76.50;;;;;;5043120;28;19909;-70
2022/11/09 02:03:44;;;;;;;;;;;25.30;75.10;;;;;;5043291;28;19909;-70
2022/11/09 02:06:12;;;;;;;;;;;25.50;78.00;;;;;;5043094;28;19955;-68
2022/11/09 02:08:39;;;;;;;;;;;26.00;77.40;;;;;;5043935;28;19908;-68
2022/11/09 02:11:06;;;;;;;;;;;26.20;76.70;;;;;;5025246;28;20285;-69
2022/11/09 02:13:33;;;;;;;;;;;26.20;75.50;;;;;;5043708;28;19932;-68
2022/11/09 02:16:00;;;;;;;;;;;26.40;77.00;;;;;;5042255;28;19951;-69
2022/11/09 02:18:27;;;;;;;;;;;26.70;76.30;;;;;;5043393;28;19921;-68
2022/11/09 02:20:55;;;;;;;;;;;26.90;78.00;;;;;;5041493;28;20340;-67
2022/11/09 02:23:21;;;;;;;;;;;27.20;75.80;;;;;;5043120;28;20384;-68
2022/11/09 02:25:52;;;;;;;;;;;27.00;72.80;;;;;;5042686;28;20332;-68
2022/11/09 02:28:18;;;;;;;;;;;27.10;73.00;;;;;;5042503;28;20176;-67
2022/11/09 02:30:48;;;;;;;;;;;26.90;73.20;;;;;;5042733;28;19905;-69
2022/11/09 02:33:15;;;;;;;;;;;27.10;74.90;;;;;;5042999;28;19909;-69
2022/11/09 02:35:41;;;;;;;;;;;27.10;77.00;;;;;;5043147;28;19916;-70
2022/11/09 02:38:12;;;;;;;;;;;27.10;75.40;;;;;;5042301;28;19917;-68
2022/11/09 02:40:41;;;;;;;;;;;27.40;74.10;;;;;;5043032;28;19974;-69
2022/11/09 02:43:08;;;;;;;;;;;27.30;72.80;;;;;;5042517;28;19909;-68
2022/11/09 02:45:35;;;;;;;;;;;27.50;71.90;;;;;;5042749;28;20003;-70
2022/11/09 02:48:02;;;;;;;;;;;27.80;72.10;;;;;;5042009;28;19913;-68
2022/11/09 02:50:29;;;;;;;;;;;27.70;73.20;;;;;;5043073;28;19909;-68
2022/11/09 02:52:55;;;;;;;;;;;29.10;70.70;;;;;;5042059;28;19909;-68
2022/11/09 02:55:22;;;;;;;;;;;29.90;68.50;;;;;;5041976;28;20370;-69
2022/11/09 02:57:49;;;;;;;;;;;29.90;68.30;;;;;;5042472;28;19924;-69
2022/11/09 03:00:15;;;;;;;;;;;30.70;66.00;;;;;;5042437;28;19909;-71
2022/11/09 03:02:42;;;;;;;;;;;30.60;66.10;;;;;;5042803;28;19909;-68
2022/11/09 03:05:09;;;;;;;;;;;30.80;64.00;;;;;;5023658;28;19909;-67
2022/11/09 03:07:35;;;;;;;;;;;31.80;61.20;;;;;;5041036;28;19958;-71
2022/11/09 03:10:03;;;;;;;;;;;30.60;64.80;;;;;;5042234;28;19913;-68
2022/11/09 03:12:29;;;;;;;;;;;30.50;64.30;;;;;;5042203;28;19909;-68
2022/11/09 03:15:00;;;;;;;;;;;31.70;62.70;;;;;;5041550;28;19909;-68
2022/11/09 03:17:27;;;;;;;;;;;32.60;62.70;;;;;;5041633;28;20034;-69
2022/11/09 03:19:53;;;;;;;;;;;33.10;60.80;;;;;;5042036;28;19928;-68
2022/11/09 03:22:21;;;;;;;;;;;33.50;58.70;;;;;;5042166;28;20448;-69
2022/11/09 03:24:48;;;;;;;;;;;34.00;58.60;;;;;;5042598;28;20054;-70
2022/11/09 03:27:14;;;;;;;;;;;35.10;55.70;;;;;;5023570;28;19909;-70
2022/11/09 03:29:41;;;;;;;;;;;34.00;56.70;;;;;;5042125;28;19924;-71
2022/11/09 03:32:08;;;;;;;;;;;33.70;57.90;;;;;;5040847;28;19908;-71
2022/11/09 03:34:35;;;;;;;;;;;34.30;56.40;;;;;;5042190;28;19913;-70
2022/11/09 03:37:01;;;;;;;;;;;34.00;56.40;;;;;;5041393;28;19913;-68
2022/11/09 03:39:28;;;;;;;;;;;34.00;56.20;;;;;;5041108;28;19999;-68
2022/11/09 03:41:55;;;;;;;;;;;33.90;56.20;;;;;;5041625;28;20019;-70
2022/11/09 03:44:21;;;;;;;;;;;34.10;55.60;;;;;;5041248;28;20008;-68
2022/11/09 03:46:48;;;;;;;;;;;33.40;55.20;;;;;;5041889;28;19908;-68
2022/11/09 03:49:15;;;;;;;;;;;32.70;56.90;;;;;;5041161;28;19963;-68
2022/11/09 03:51:41;;;;;;;;;;;32.70;56.10;;;;;;5041640;28;19947;-68
2022/11/09 03:54:08;;;;;;;;;;;33.30;54.20;;;;;;5041202;28;19916;-69
2022/11/09 03:56:34;;;;;;;;;;;33.20;54.10;;;;;;5041511;28;19909;-69
2022/11/09 03:59:01;;;;;;;;;;;34.80;53.60;;;;;;5040856;28;19971;-68
2022/11/09 04:01:28;;;;;;;;;;;35.40;50.90;;;;;;5041196;28;20083;-68
2022/11/09 04:03:54;;;;;;;;;;;34.80;51.50;;;;;;5023696;28;20410;-69
2022/11/09 04:06:21;;;;;;;;;;;34.30;49.60;;;;;;5040368;28;19909;-68
2022/11/09 04:08:47;;;;;;;;;;;34.20;49.90;;;;;;5041261;28;19908;-69
2022/11/09 04:11:14;;;;;;;;;;;34.20;50.40;;;;;;5040662;28;19978;-69
2022/11/09 04:13:41;;;;;;;;;;;34.70;50.70;;;;;;5041328;28;20328;-68
2022/11/09 04:16:08;;;;;;;;;;;35.00;50.10;;;;;;5040349;28;20005;-69
2022/11/09 04:18:34;;;;;;;;;;;36.00;49.20;;;;;;5040159;28;20106;-69
2022/11/09 04:21:01;;;;;;;;;;;36.40;47.40;;;;;;5039918;28;19940;-71
2022/11/09 04:23:27;;;;;;;;;;;36.80;46.40;;;;;;5040056;28;20308;-70
2022/11/09 04:25:57;;;;;;;;;;;34.70;47.60;;;;;;5038279;28;20384;-70
2022/11/09 04:28:23;;;;;;;;;;;33.90;48.80;;;;;;5039088;28;20109;-69
2022/11/09 04:30:50;;;;;;;;;;;34.10;48.80;;;;;;5040639;28;19905;-69
2022/11/09 04:33:16;;;;;;;;;;;34.00;48.00;;;;;;5039890;28;20003;-71
2022/11/09 04:35:43;;;;;;;;;;;33.10;49.70;;;;;;5040326;28;19909;-70
2022/11/09 04:38:11;;;;;;;;;;;32.80;51.80;;;;;;5039901;28;20423;-69
2022/11/09 04:40:38;;;;;;;;;;;31.90;56.00;;;;;;5040318;28;19928;-69
2022/11/09 04:43:06;;;;;;;;;;;33.70;53.00;;;;;;5040272;28;19912;-69
2022/11/09 04:45:33;;;;;;;;;;;34.60;52.30;;;;;;5039471;28;19915;-69
2022/11/09 04:48:01;;;;;;;;;;;35.80;51.80;;;;;;5040887;28;20403;-69
2022/11/09 04:50:28;;;;;;;;;;;36.90;51.20;;;;;;5039274;28;19943;-70
2022/11/09 04:52:55;;;;;;;;;;;37.60;49.50;;;;;;5040136;28;19909;-70
2022/11/09 04:55:21;;;;;;;;;;;36.80;49.70;;;;;;5039279;28;19912;-71
2022/11/09 04:57:48;;;;;;;;;;;35.30;50.40;;;;;;5042155;28;20397;-70
2022/11/09 05:00:15;;;;;;;;;;;34.30;51.30;;;;;;5040000;28;19909;-69
2022/11/09 05:02:41;;;;;;;;;;;33.50;52.50;;;;;;5039155;28;20377;-71
2022/11/09 05:05:08;;;;;;;;;;;32.80;53.30;;;;;;5039257;28;19920;-70
2022/11/09 05:07:35;;;;;;;;;;;33.00;53.80;;;;;;5039876;28;20320;-70
2022/11/09 05:10:02;;;;;;;;;;;33.10;52.20;;;;;;5040641;28;19909;-69
2022/11/09 05:12:29;;;;;;;;;;;33.00;53.00;;;;;;5039299;28;19920;-71
2022/11/09 05:14:55;;;;;;;;;;;32.40;53.50;;;;;;5049533;28;19913;-67
2022/11/09 05:17:22;;;;;;;;;;;32.50;53.70;;;;;;5043652;28;19920;-72
2022/11/09 05:19:49;;;;;;;;;;;32.40;54.70;;;;;;5039805;28;19912;-68
2022/11/09 05:25:00;;;;;;;;;;;32.40;54.00;;;;;;5049208;28;19936;-69
2022/11/09 05:27:26;;;;;;;;;;;31.80;54.70;;;;;;5040995;28;19917;-69
2022/11/09 05:29:53;;;;;;;;;;;32.00;54.70;;;;;;5040665;28;19917;-67
2022/11/09 05:32:20;;;;;;;;;;;31.70;55.40;;;;;;5039414;28;19909;-67
2022/11/09 05:34:46;;;;;;;;;;;31.60;55.30;;;;;;5038479;28;19996;-69
2022/11/09 05:37:13;;;;;;;;;;;31.00;55.90;;;;;;5038763;28;19998;-71
2022/11/09 05:39:40;;;;;;;;;;;30.90;55.90;;;;;;5038150;28;19944;-69
2022/11/09 05:42:09;;;;;;;;;;;30.60;56.60;;;;;;5039161;28;19924;-67
2022/11/09 05:44:35;;;;;;;;;;;30.70;57.50;;;;;;5016166;28;19916;-70
2022/11/09 05:47:02;;;;;;;;;;;31.20;55.80;;;;;;5037468;28;19921;-71
2022/11/09 05:49:28;;;;;;;;;;;31.10;55.20;;;;;;5036653;28;19909;-69
2022/11/09 05:51:55;;;;;;;;;;;31.30;56.80;;;;;;5037804;28;19958;-67
2022/11/09 05:54:22;;;;;;;;;;;31.90;55.10;;;;;;5036946;28;19916;-68
2022/11/09 05:56:48;;;;;;;;;;;31.50;55.80;;;;;;5041470;28;20670;-71
2022/11/09 05:59:15;;;;;;;;;;;30.60;57.50;;;;;;5043172;28;19944;-70
2022/11/09 06:01:41;;;;;;;;;;;30.50;57.40;;;;;;5043418;28;19916;-68
2022/11/09 06:04:08;;;;;;;;;;;30.90;56.60;;;;;;5062639;28;19912;-69
2022/11/09 06:06:35;;;;;;;;;;;30.60;56.40;;;;;;5053727;28;20374;-72
2022/11/09 06:09:01;;;;;;;;;;;30.70;57.20;;;;;;5043257;28;19909;-68
2022/11/09 06:11:28;;;;;;;;;;;30.70;57.10;;;;;;5058613;28;19935;-67
2022/11/09 06:13:55;;;;;;;;;;;29.90;58.30;;;;;;5042908;28;20027;-67
2022/11/09 06:16:21;;;;;;;;;;;29.20;59.40;;;;;;5052932;28;20000;-67
2022/11/09 06:18:48;;;;;;;;;;;28.60;60.20;;;;;;5062573;28;19963;-67
2022/11/09 06:21:16;;;;;;;;;;;28.10;62.10;;;;;;5062756;28;19913;-68
2022/11/09 06:23:43;;;;;;;;;;;27.80;63.20;;;;;;5062631;28;19909;-67
2022/11/09 06:26:10;;;;;;;;;;;27.70;63.60;;;;;;5053576;28;19966;-71
2022/11/09 06:28:38;;;;;;;;;;;27.40;63.00;;;;;;5042816;28;19909;-70
2022/11/09 06:31:05;;;;;;;;;;;26.80;64.20;;;;;;5053692;28;19912;-68
2022/11/09 06:33:33;;;;;;;;;;;26.30;64.60;;;;;;5041535;28;19920;-67
2022/11/09 06:36:00;;;;;;;;;;;25.80;64.50;;;;;;5041991;28;20350;-68
2022/11/09 06:38:27;;;;;;;;;;;25.30;65.60;;;;;;5049430;28;19924;-68
2022/11/09 06:40:55;;;;;;;;;;;24.80;65.70;;;;;;5046892;28;20015;-68
2022/11/09 06:43:22;;;;;;;;;;;25.00;66.10;;;;;;5062408;28;20368;-68
2022/11/09 06:45:49;;;;;;;;;;;25.10;65.80;;;;;;5062730;28;20340;-66
2022/11/09 06:48:16;;;;;;;;;;;25.10;65.90;;;;;;5049737;28;20018;-67
2022/11/09 06:50:43;;;;;;;;;;;24.90;66.40;;;;;;5040137;28;20803;-67
2022/11/09 06:53:11;;;;;;;;;;;24.70;67.00;;;;;;5039634;28;19955;-66
2022/11/09 06:55:38;;;;;;;;;;;24.50;67.60;;;;;;5040814;28;19999;-66
2022/11/09 06:58:09;;;;;;;;;;;24.70;67.30;;;;;;5041417;28;19921;-66
2022/11/09 07:00:36;;;;;;;;;;;24.70;66.40;;;;;;5045772;28;19912;-66
2022/11/09 07:03:03;;;;;;;;;;;24.30;65.80;;;;;;5044812;28;19955;-68
2022/11/09 07:05:30;;;;;;;;;;;24.20;65.20;;;;;;5040001;28;19913;-66
2022/11/09 07:07:57;;;;;;;;;;;23.90;66.80;;;;;;5039566;28;19996;-71
2022/11/09 07:10:24;;;;;;;;;;;24.10;67.00;;;;;;5040401;28;19912;-70
2022/11/09 07:12:50;;;;;;;;;;;23.90;68.00;;;;;;5041206;28;19921;-66
2022/11/09 07:15:17;;;;;;;;;;;23.40;69.30;;;;;;5039724;28;20210;-68
2022/11/09 07:17:44;;;;;;;;;;;23.30;70.50;;;;;;5040248;28;19921;-70
2022/11/09 07:20:13;;;;;;;;;;;23.20;70.30;;;;;;5037907;28;19967;-69
2022/11/09 07:22:40;;;;;;;;;;;23.30;69.10;;;;;;5039897;28;19913;-68
2022/11/09 07:25:08;;;;;;;;;;;23.40;69.60;;;;;;5039948;28;19915;-68
2022/11/09 07:27:35;;;;;;;;;;;23.30;69.30;;;;;;5038355;28;19909;-70
2022/11/09 07:30:03;;;;;;;;;;;23.10;70.20;;;;;;5041211;28;19917;-68
2022/11/09 07:32:32;;;;;;;;;;;22.80;71.40;;;;;;5039957;28;19935;-67
2022/11/09 07:34:59;;;;;;;;;;;22.80;72.30;;;;;;5041806;28;19920;-68
2022/11/09 07:37:25;;;;;;;;;;;22.90;71.90;;;;;;5039069;28;19917;-69
2022/11/09 07:39:52;;;;;;;;;;;22.90;71.50;;;;;;5039818;28;19981;-68
2022/11/09 07:42:19;;;;;;;;;;;22.80;71.20;;;;;;5039871;28;20042;-67
2022/11/09 07:44:45;;;;;;;;;;;22.40;71.60;;;;;;5039875;28;20647;-67
2022/11/09 07:47:12;;;;;;;;;;;22.20;72.50;;;;;;5040123;28;20621;-66
2022/11/09 07:49:39;;;;;;;;;;;22.00;73.60;;;;;;5046242;28;19934;-67
2022/11/09 07:52:05;;;;;;;;;;;22.10;74.00;;;;;;5055198;28;19924;-70
2022/11/09 07:54:32;;;;;;;;;;;22.30;73.50;;;;;;5040984;28;20569;-66
2022/11/09 07:56:58;;;;;;;;;;;22.20;73.30;;;;;;5035484;28;20084;-66
2022/11/09 07:59:25;;;;;;;;;;;22.20;73.30;;;;;;5043639;28;19951;-67
2022/11/09 08:01:52;;;;;;;;;;;22.00;73.10;;;;;;5054047;28;20011;-67
2022/11/09 08:04:19;;;;;;;;;;;22.00;73.80;;;;;;5038613;28;20429;-67
2022/11/09 08:06:45;;;;;;;;;;;21.90;74.40;;;;;;5029037;28;20548;-67
2022/11/09 08:09:12;;;;;;;;;;;21.60;74.70;;;;;;5039444;28;19999;-67
2022/11/09 08:11:38;;;;;;;;;;;21.40;75.10;;;;;;5040431;28;19909;-66
2022/11/09 08:14:05;;;;;;;;;;;21.30;75.70;;;;;;5058101;28;19912;-66
2022/11/09 08:16:32;;;;;;;;;;;21.30;75.60;;;;;;5049970;28;19919;-66
2022/11/09 08:18:58;;;;;;;;;;;21.20;76.40;;;;;;5040299;28;20688;-66
2022/11/09 08:21:25;;;;;;;;;;;21.20;76.60;;;;;;5040101;28;19954;-66
2022/11/09 08:23:52;;;;;;;;;;;21.20;76.30;;;;;;5055532;28;19981;-69
2022/11/09 08:26:19;;;;;;;;;;;21.30;76.70;;;;;;5051819;28;19909;-66
2022/11/09 08:28:45;;;;;;;;;;;21.30;75.60;;;;;;5040143;28;19913;-67
2022/11/09 08:31:12;;;;;;;;;;;21.20;76.10;;;;;;5039616;28;19921;-70
2022/11/09 08:33:40;;;;;;;;;;;21.20;75.90;;;;;;5039867;28;19913;-70
2022/11/09 08:36:14;;;;;;;;;;;21.20;75.80;;;;;;5037829;28;20258;-70
2022/11/09 08:38:41;;;;;;;;;;;21.00;76.20;;;;;;5038255;28;20372;-66
2022/11/09 08:41:08;;;;;;;;;;;21.00;76.90;;;;;;5040120;28;19921;-67
2022/11/09 08:43:35;;;;;;;;;;;21.00;77.30;;;;;;5040188;28;19924;-67
2022/11/09 08:46:02;;;;;;;;;;;21.00;77.40;;;;;;5039493;28;19913;-66
2022/11/09 08:48:29;;;;;;;;;;;21.00;77.20;;;;;;5039483;28;19920;-67
2022/11/09 08:50:57;;;;;;;;;;;21.00;76.70;;;;;;5040145;28;20384;-68
2022/11/09 08:53:25;;;;;;;;;;;20.90;77.40;;;;;;5039350;28;20397;-67
2022/11/09 08:55:52;;;;;;;;;;;20.80;77.90;;;;;;5040083;28;20062;-67
2022/11/09 08:58:19;;;;;;;;;;;20.80;78.30;;;;;;5037180;28;20019;-71
2022/11/09 09:00:45;;;;;;;;;;;20.80;78.50;;;;;;5040359;28;19990;-68
2022/11/09 09:03:12;;;;;;;;;;;20.70;79.10;;;;;;5048445;28;20058;-69
2022/11/09 09:05:39;;;;;;;;;;;20.70;79.50;;;;;;5059704;28;19912;-69
2022/11/09 09:08:06;;;;;;;;;;;20.70;80.50;;;;;;5044591;28;19919;-69
2022/11/09 09:10:34;;;;;;;;;;;20.60;81.50;;;;;;5039155;28;20368;-69
2022/11/09 09:13:02;;;;;;;;;;;20.60;82.10;;;;;;5039884;28;19917;-68
2022/11/09 09:15:28;;;;;;;;;;;20.50;83.90;;;;;;5039681;28;19908;-69
2022/11/09 09:17:55;;;;;;;;;;;20.50;84.20;;;;;;5039074;28;19917;-68
2022/11/09 09:20:22;;;;;;;;;;;20.40;84.50;;;;;;5039488;28;19909;-69
2022/11/09 09:22:48;;;;;;;;;;;20.30;85.00;;;;;;5041305;28;19967;-68
2022/11/09 09:25:15;;;;;;;;;;;20.40;85.60;;;;;;5039817;28;20015;-69
2022/11/09 09:27:43;;;;;;;;;;;20.30;86.10;;;;;;5040584;28;19920;-68
2022/11/09 09:30:10;;;;;;;;;;;20.30;86.80;;;;;;5038972;28;19919;-69
2022/11/09 09:32:36;;;;;;;;;;;20.30;87.40;;;;;;5043606;28;19955;-69
2022/11/09 09:35:03;;;;;;;;;;;20.30;87.20;;;;;;5043562;28;19915;-68
2022/11/09 09:37:29;;;;;;;;;;;20.40;87.40;;;;;;5044586;28;19975;-69
2022/11/09 09:39:56;;;;;;;;;;;20.40;88.00;;;;;;5042698;28;19974;-69
2022/11/09 09:42:26;;;;;;;;;;;20.30;88.90;;;;;;5044438;28;19916;-70
2022/11/09 09:44:55;;;;;;;;;;;20.20;89.40;;;;;;5059755;28;19913;-69
2022/11/09 09:47:31;;;;;;;;;;;20.00;90.00;;;;;;5054635;28;19909;-69
2022/11/09 09:50:01;;;;;;;;;;;20.10;90.20;;;;;;5042594;28;19909;-69
2022/11/09 09:52:33;;;;;;;;;;;20.00;90.50;;;;;;5042541;28;19966;-69
2022/11/09 09:55:18;;;;;;;;;;;20.00;90.70;;;;;;5043192;28;20354;-69
2022/11/09 09:57:49;;;;;;;;;;;20.10;91.00;;;;;;5041998;28;20106;-68
2022/11/09 10:00:23;;;;;;;;;;;20.10;90.80;;;;;;5042883;28;20000;-69
2022/11/09 10:02:51;;;;;;;;;;;20.10;90.90;;;;;;5048104;28;19947;-69
2022/11/09 10:05:19;;;;;;;;;;;20.10;91.20;;;;;;5044048;28;20415;-69
2022/11/09 10:08:11;;;;;;;;;;;20.00;91.10;;;;;;5041380;28;20107;-69
2022/11/09 10:10:44;;;;;;;;;;;20.00;90.60;;;;;;4997240;28;20008;-68
2022/11/09 10:13:29;;;;;;;;;;;20.00;90.50;;;;;;5031807;28;19913;-68
2022/11/09 10:15:56;;;;;;;;;;;20.10;90.50;;;;;;5022767;28;19920;-69
2022/11/09 10:18:31;;;;;;;;;;;20.10;90.40;;;;;;5054803;28;19920;-69
2022/11/09 10:21:04;;;;;;;;;;;20.20;90.50;;;;;;5061439;28;20427;-69
2022/11/09 10:23:44;;;;;;;;;;;20.20;90.10;;;;;;5061673;28;19987;-69
2022/11/09 10:26:20;;;;;;;;;;;20.20;90.30;;;;;;5062455;28;19915;-68
2022/11/09 10:28:49;;;;;;;;;;;20.20;90.20;;;;;;5040438;28;20393;-70
2022/11/09 10:31:20;;;;;;;;;;;20.20;90.30;;;;;;5041796;28;19917;-70
2022/11/09 10:33:49;;;;;;;;;;;20.00;90.40;;;;;;5041920;28;19913;-68
2022/11/09 10:36:23;;;;;;;;;;;20.00;90.80;;;;;;5042090;28;20358;-70
2022/11/09 10:38:50;;;;;;;;;;;20.00;90.90;;;;;;5041734;28;19927;-68
2022/11/09 10:41:26;;;;;;;;;;;19.90;91.00;;;;;;5023985;28;20342;-68
2022/11/09 10:43:53;;;;;;;;;;;19.90;90.90;;;;;;5040691;28;19955;-68
2022/11/09 10:46:20;;;;;;;;;;;19.90;90.70;;;;;;5042019;28;19916;-68
2022/11/09 10:48:47;;;;;;;;;;;19.90;90.70;;;;;;5042190;28;19912;-70
2022/11/09 10:51:34;;;;;;;;;;;19.80;90.80;;;;;;5041163;28;19920;-67
2022/11/09 10:54:14;;;;;;;;;;;19.80;90.60;;;;;;5061319;28;19965;-70
2022/11/09 10:56:48;;;;;;;;;;;19.80;90.90;;;;;;5045116;28;19948;-69
2022/11/09 10:59:27;;;;;;;;;;;19.80;91.00;;;;;;5047864;28;19974;-70
2022/11/09 11:01:54;;;;;;;;;;;19.80;91.20;;;;;;5060894;28;19908;-70
2022/11/09 11:04:23;;;;;;;;;;;19.80;91.30;;;;;;5061138;28;19913;-68
2022/11/09 11:06:49;;;;;;;;;;;19.80;91.30;;;;;;5060700;28;19912;-69
2022/11/09 11:09:19;;;;;;;;;;;19.70;91.60;;;;;;5060182;28;19909;-69
2022/11/09 11:11:46;;;;;;;;;;;19.70;91.80;;;;;;5061335;28;19909;-68
2022/11/09 11:14:14;;;;;;;;;;;19.70;91.90;;;;;;5059090;28;19916;-68
2022/11/09 11:16:42;;;;;;;;;;;19.70;91.90;;;;;;5060718;28;20427;-69
2022/11/09 11:19:27;;;;;;;;;;;19.70;92.00;;;;;;5059897;28;19951;-69
2022/11/09 11:22:11;;;;;;;;;;;19.70;92.10;;;;;;5061182;28;19908;-69
2022/11/09 11:24:45;;;;;;;;;;;19.60;92.00;;;;;;5059806;28;19997;-69
2022/11/09 11:27:23;;;;;;;;;;;19.60;92.10;;;;;;5059408;28;20315;-70
2022/11/09 11:29:56;;;;;;;;;;;19.50;92.20;;;;;;5061112;28;19909;-71
2022/11/09 11:32:22;;;;;;;;;;;19.60;92.30;;;;;;5060870;28;19918;-68
2022/11/09 11:34:49;;;;;;;;;;;19.60;92.50;;;;;;5061574;28;19912;-69
2022/11/09 11:37:19;;;;;;;;;;;19.60;92.30;;;;;;5059070;28;19922;-69
2022/11/09 11:40:11;;;;;;;;;;;19.60;92.40;;;;;;5060737;28;20289;-69
2022/11/09 11:42:53;;;;;;;;;;;19.50;92.40;;;;;;5058420;28;20522;-67
2022/11/09 11:45:24;;;;;;;;;;;19.60;92.90;;;;;;5060141;28;19908;-68
2022/11/09 11:47:57;;;;;;;;;;;19.60;92.90;;;;;;5060361;28;19924;-68
2022/11/09 11:50:24;;;;;;;;;;;19.60;92.70;;;;;;5061361;28;20373;-68
2022/11/09 11:53:09;;;;;;;;;;;19.60;92.70;;;;;;5060898;28;20046;-68
2022/11/09 11:56:00;;;;;;;;;;;19.60;93.00;;;;;;5060789;28;20357;-69
2022/11/09 11:58:38;;;;;;;;;;;19.60;93.30;;;;;;5060599;28;19924;-69
2022/11/09 12:01:23;;;;;;;;;;;19.50;93.70;;;;;;5059253;28;19908;-68
2022/11/09 12:03:56;;;;;;;;;;;19.60;93.80;;;;;;5060188;28;19912;-69
2022/11/09 12:06:34;;;;;;;;;;;19.50;94.00;;;;;;5059688;28;19912;-69
2022/11/09 12:09:13;;;;;;;;;;;19.50;94.00;;;;;;5060273;28;20380;-69
2022/11/09 12:11:40;;;;;;;;;;;19.50;94.30;;;;;;5060117;28;19908;-68
2022/11/09 12:14:24;;;;;;;;;;;19.60;94.40;;;;;;5059740;28;19909;-69
2022/11/09 12:17:06;;;;;;;;;;;19.50;94.40;;;;;;5059895;28;20007;-69
2022/11/09 12:19:33;;;;;;;;;;;19.40;94.70;;;;;;5059985;28;20387;-69
2022/11/09 12:22:08;;;;;;;;;;;19.40;94.80;;;;;;5060541;28;19919;-70
2022/11/09 12:24:42;;;;;;;;;;;19.40;95.10;;;;;;5060211;28;19944;-70
2022/11/09 12:27:18;;;;;;;;;;;19.40;95.10;;;;;;5059181;28;19917;-69
2022/11/09 12:29:53;;;;;;;;;;;19.40;95.10;;;;;;5060523;28;19919;-69
2022/11/09 12:32:20;;;;;;;;;;;19.30;95.30;;;;;;5059512;28;19919;-69
2022/11/09 12:34:55;;;;;;;;;;;19.30;95.50;;;;;;5060578;28;19908;-69
2022/11/09 12:37:24;;;;;;;;;;;19.20;95.80;;;;;;5058804;28;20145;-70
2022/11/09 12:39:55;;;;;;;;;;;19.40;96.00;;;;;;5052314;22;19928;-65
2022/11/09 12:42:57;;;;;;;;;;;19.50;96.20;;;;;;5019653;28;19913;-65
2022/11/09 12:45:29;;;;;;;;;;;19.50;96.30;;;;;;4958636;28;19957;-66
2022/11/09 12:47:58;;;;;;;;;;;19.50;96.70;;;;;;5009985;28;19909;-65
2022/11/09 12:50:25;;;;;;;;;;;19.50;96.80;;;;;;5019399;28;19913;-66
2022/11/09 12:52:52;;;;;;;;;;;19.60;97.30;;;;;;5002677;28;19931;-67
2022/11/09 12:55:31;;;;;;;;;;;19.60;97.20;;;;;;5019674;28;19920;-65
2022/11/09 12:57:59;;;;;;;;;;;19.70;98.70;;;;;;5020011;28;20008;-64
2022/11/09 13:00:34;;;;;;;;;;;19.80;99.90;;;;;;5019788;28;19920;-65
2022/11/09 13:03:05;;;;;;;;;;;19.80;99.90;;;;;;5020750;28;19909;-66
2022/11/09 13:05:34;;;;;;;;;;;19.70;99.90;;;;;;5020216;28;19909;-64
2022/11/09 13:08:02;;;;;;;;;;;19.60;99.90;;;;;;5023430;28;20062;-64
2022/11/09 13:10:36;;;;;;;;;;;19.50;99.90;;;;;;5023132;28;20298;-67
2022/11/09 13:13:02;;;;;;;;;;;19.50;99.90;;;;;;5006326;28;19955;-65
2022/11/09 13:15:31;;;;;;;;;;;19.40;99.90;;;;;;5022754;28;19909;-65
2022/11/09 13:18:00;;;;;;;;;;;19.30;99.90;;;;;;5023411;28;19968;-68
2022/11/09 13:20:38;;;;;;;;;;;19.30;99.90;;;;;;5023605;28;19913;-67
2022/11/09 13:23:23;;;;;;;;;;;19.40;99.90;;;;;;5024166;28;19963;-67
2022/11/09 13:25:51;;;;;;;;;;;19.50;99.90;;;;;;5023686;28;19969;-66
2022/11/09 13:28:27;;;;;;;;;;;19.50;99.90;;;;;;5004356;28;20258;-66
2022/11/09 13:30:57;;;;;;;;;;;19.50;99.90;;;;;;5023329;28;19953;-67
2022/11/09 13:33:24;;;;;;;;;;;19.40;99.90;;;;;;5023594;28;19909;-65
2022/11/09 13:35:52;;;;;;;;;;;19.40;99.90;;;;;;5023411;28;19913;-64
2022/11/09 13:38:21;;;;;;;;;;;19.40;99.90;;;;;;5022702;28;20285;-65
2022/11/09 13:40:49;;;;;;;;;;;19.50;99.90;;;;;;5022689;28;19975;-66
2022/11/09 13:43:15;;;;;;;;;;;19.50;99.90;;;;;;5023442;28;19917;-66
2022/11/09 13:46:02;;;;;;;;;;;19.50;99.90;;;;;;5023243;28;19909;-65
2022/11/09 13:48:41;;;;;;;;;;;19.50;99.80;;;;;;5023689;28;19947;-66
2022/11/09 13:51:17;;;;;;;;;;;19.50;99.20;;;;;;5023420;28;19909;-65
2022/11/09 13:53:47;;;;;;;;;;;19.50;99.40;;;;;;5023464;28;19909;-66
2022/11/09 13:56:20;;;;;;;;;;;19.50;99.50;;;;;;5023367;28;19917;-65
2022/11/09 13:58:49;;;;;;;;;;;19.50;99.10;;;;;;5023003;28;20304;-65
2022/11/09 14:01:42;;;;;;;;;;;19.60;99.50;;;;;;5023544;28;20446;-67
2022/11/09 14:04:19;;;;;;;;;;;19.60;98.60;;;;;;5020979;28;19913;-65
2022/11/09 14:06:46;;;;;;;;;;;19.40;98.20;;;;;;5022248;28;19913;-66
2022/11/09 14:09:16;;;;;;;;;;;19.40;98.30;;;;;;5023579;28;19909;-66
2022/11/09 14:11:56;;;;;;;;;;;19.40;97.90;;;;;;5021033;28;20000;-63
2022/11/09 14:14:40;;;;;;;;;;;19.40;98.00;;;;;;5022134;28;20318;-65
2022/11/09 14:17:25;;;;;;;;;;;19.30;98.00;;;;;;5022223;28;19919;-65
2022/11/09 14:19:59;;;;;;;;;;;19.40;97.90;;;;;;5022681;28;19917;-66
2022/11/09 14:22:26;;;;;;;;;;;19.40;97.90;;;;;;5022591;28;19948;-66
2022/11/09 14:24:52;;;;;;;;;;;19.40;97.60;;;;;;5022400;28;20663;-68
2022/11/09 14:27:20;;;;;;;;;;;19.40;97.90;;;;;;5022631;28;19913;-64
2022/11/09 14:29:49;;;;;;;;;;;19.30;97.80;;;;;;5022430;28;20008;-65